Time;durP1;ratioP1;P1;durP2;ratioP2;P2;SDS_P1;SDS_P2;PMS_P1;PMS_P2;Temp;Humidity;BMP_temperature;BMP_pressure;BME280_temperature;BME280_humidity;BME280_pressure;Samples;Min_cycle;Max_cycle;Signal;HPM_P1;HPM_P2
2022/09/22 00:01:06;;;;;;;3.00;1.70;;;10.80;1.00;;;;;;5049244;28;20442;-74
2022/09/22 00:03:33;;;;;;;2.13;1.87;;;10.70;1.00;;;;;;5045226;28;20169;-73
2022/09/22 00:06:12;;;;;;;2.70;1.73;;;10.70;1.00;;;;;;5051687;28;20416;-73
2022/09/22 00:08:41;;;;;;;1.90;1.70;;;10.70;1.00;;;;;;5039588;28;20945;-72
2022/09/22 00:11:12;;;;;;;4.17;1.73;;;10.60;1.00;;;;;;5048017;28;20415;-73
2022/09/22 00:13:38;;;;;;;3.90;1.87;;;10.60;1.00;;;;;;5035035;28;20478;-74
2022/09/22 00:16:08;;;;;;;2.63;1.70;;;10.50;1.00;;;;;;5051353;28;20461;-72
2022/09/22 00:18:34;;;;;;;2.00;1.80;;;10.50;1.00;;;;;;5052796;28;20725;-72
2022/09/22 00:21:06;;;;;;;3.33;1.97;;;10.50;1.00;;;;;;5042719;28;20498;-73
2022/09/22 00:23:32;;;;;;;2.50;2.13;;;10.40;1.00;;;;;;5043616;28;20432;-72
2022/09/22 00:25:58;;;;;;;5.53;2.23;;;10.40;1.00;;;;;;5048946;28;20443;-73
2022/09/22 00:28:25;;;;;;;1.93;1.80;;;10.30;1.00;;;;;;5050981;28;20208;-74
2022/09/22 00:30:51;;;;;;;2.03;1.90;;;10.30;1.00;;;;;;5047283;28;20177;-72
2022/09/22 00:33:16;;;;;;;5.10;1.97;;;10.30;1.00;;;;;;5036899;28;20427;-72
2022/09/22 00:35:42;;;;;;;6.17;2.07;;;10.20;1.00;;;;;;5042265;28;20209;-73
2022/09/22 00:38:07;;;;;;;3.27;2.00;;;10.20;1.00;;;;;;5051167;28;20188;-73
2022/09/22 00:40:35;;;;;;;2.07;1.70;;;10.20;1.00;;;;;;5048376;28;20181;-71
2022/09/22 00:43:32;;;;;;;5.20;2.80;;;10.20;1.00;;;;;;5048890;28;20672;-73
2022/09/22 00:46:05;;;;;;;2.60;1.93;;;10.10;1.00;;;;;;5050803;28;20423;-71
2022/09/22 00:48:36;;;;;;;2.77;1.83;;;10.10;1.00;;;;;;5049811;28;20426;-74
2022/09/22 00:51:04;;;;;;;4.57;2.30;;;10.10;1.00;;;;;;5044033;28;20545;-73
2022/09/22 00:53:30;;;;;;;7.20;2.00;;;10.00;1.00;;;;;;5050408;28;20408;-73
2022/09/22 00:56:19;;;;;;;2.17;1.83;;;10.00;1.00;;;;;;5041788;28;20424;-71
2022/09/22 00:58:51;;;;;;;1.97;1.77;;;10.00;1.00;;;;;;5046884;28;20440;-73
2022/09/22 01:01:18;;;;;;;3.50;2.03;;;9.90;1.00;;;;;;5046457;28;20442;-73
2022/09/22 01:03:45;;;;;;;2.57;1.90;;;9.80;1.00;;;;;;5050345;28;20411;-73
2022/09/22 01:06:15;;;;;;;2.40;2.20;;;9.70;1.00;;;;;;5045942;28;20515;-73
2022/09/22 01:08:42;;;;;;;3.43;2.30;;;9.60;1.00;;;;;;5046769;28;20443;-72
2022/09/22 01:11:09;;;;;;;3.37;2.00;;;9.60;1.00;;;;;;5044035;28;20433;-72
2022/09/22 01:14:05;;;;;;;5.90;2.00;;;9.40;1.00;;;;;;5039245;28;20435;-72
2022/09/22 01:16:44;;;;;;;2.27;2.00;;;9.40;1.00;;;;;;5045848;28;20414;-73
2022/09/22 01:19:44;;;;;;;2.27;2.07;;;9.40;1.00;;;;;;5040290;28;20408;-73
2022/09/22 01:22:56;;;;;;;2.40;1.97;;;9.40;1.00;;;;;;5042448;28;20408;-73
2022/09/22 01:25:56;;;;;;;2.20;1.90;;;9.30;1.00;;;;;;5047843;28;20603;-72
2022/09/22 01:28:47;;;;;;;5.30;2.20;;;9.30;1.00;;;;;;5044277;28;20765;-73
2022/09/22 01:31:33;;;;;;;5.73;2.63;;;9.20;1.00;;;;;;5043058;28;20435;-73
2022/09/22 01:34:30;;;;;;;2.57;2.03;;;9.10;1.00;;;;;;5040035;28;20474;-73
2022/09/22 01:37:24;;;;;;;3.67;2.00;;;9.00;1.00;;;;;;5048447;28;20523;-73
2022/09/22 01:39:55;;;;;;;2.10;1.83;;;9.00;1.00;;;;;;5046758;28;20436;-72
2022/09/22 01:42:34;;;;;;;3.93;2.10;;;8.90;1.00;;;;;;5043461;28;20864;-73
2022/09/22 01:45:09;;;;;;;2.30;2.10;;;8.90;1.00;;;;;;5033045;28;20435;-73
2022/09/22 01:47:57;;;;;;;2.20;1.67;;;8.80;1.00;;;;;;5045760;28;20778;-72
2022/09/22 01:50:38;;;;;;;3.00;2.03;;;8.70;1.00;;;;;;5044774;28;20428;-73
2022/09/22 01:53:09;;;;;;;3.67;2.10;;;8.60;1.00;;;;;;5028718;28;20478;-73
2022/09/22 01:55:37;;;;;;;4.27;1.90;;;8.60;1.00;;;;;;5047122;28;20477;-74
2022/09/22 01:58:20;;;;;;;2.73;1.93;;;8.50;1.00;;;;;;5030729;28;20468;-73
2022/09/22 02:00:55;;;;;;;4.03;1.90;;;8.40;1.00;;;;;;5039018;28;20439;-73
2022/09/22 02:03:37;;;;;;;6.23;2.20;;;8.30;1.00;;;;;;5040602;28;20931;-73
2022/09/22 02:06:31;;;;;;;6.73;2.13;;;8.20;1.00;;;;;;5040308;28;20438;-73
2022/09/22 02:09:08;;;;;;;3.93;1.80;;;8.20;1.00;;;;;;5042489;28;20429;-74
2022/09/22 02:11:34;;;;;;;2.40;2.17;;;8.10;1.00;;;;;;5038305;28;20436;-72
2022/09/22 02:14:01;;;;;;;2.30;2.00;;;8.00;1.00;;;;;;5043502;28;20451;-71
2022/09/22 02:16:27;;;;;;;3.57;2.27;;;7.90;1.00;;;;;;5049599;28;20799;-73
2022/09/22 02:19:00;;;;;;;4.50;1.93;;;7.90;1.00;;;;;;5047793;28;20423;-73
2022/09/22 02:21:28;;;;;;;4.60;2.13;;;7.90;1.00;;;;;;5042587;28;20170;-73
2022/09/22 02:23:54;;;;;;;3.60;2.70;;;7.90;1.00;;;;;;5048287;28;20407;-73
2022/09/22 02:26:24;;;;;;;2.10;1.80;;;7.80;1.00;;;;;;5045127;28;20511;-73
2022/09/22 02:28:58;;;;;;;3.80;1.80;;;7.80;1.00;;;;;;5048329;28;20196;-74
2022/09/22 02:31:27;;;;;;;2.10;1.90;;;7.70;1.00;;;;;;5044377;28;20938;-73
2022/09/22 02:33:54;;;;;;;2.83;1.93;;;7.70;1.00;;;;;;5038409;28;20987;-72
2022/09/22 02:36:37;;;;;;;2.90;2.20;;;7.70;1.00;;;;;;5041020;28;20453;-72
2022/09/22 02:39:09;;;;;;;2.40;2.10;;;7.60;1.00;;;;;;5042091;28;20860;-73
2022/09/22 02:41:56;;;;;;;4.73;2.10;;;7.60;1.00;;;;;;5045302;28;20407;-73
2022/09/22 02:44:29;;;;;;;5.07;2.40;;;7.50;1.00;;;;;;5032863;28;20432;-73
2022/09/22 02:47:06;;;;;;;3.90;2.13;;;7.40;1.00;;;;;;5059899;28;20526;-72
2022/09/22 02:49:32;;;;;;;2.47;2.00;;;7.40;1.00;;;;;;5046773;28;20419;-73
2022/09/22 02:51:58;;;;;;;3.00;1.83;;;7.40;1.00;;;;;;5052112;28;20438;-73
2022/09/22 02:54:24;;;;;;;3.20;1.90;;;7.40;1.00;;;;;;5049384;28;20266;-72
2022/09/22 02:56:50;;;;;;;2.20;2.00;;;7.40;1.00;;;;;;5052965;28;20443;-73
2022/09/22 02:59:15;;;;;;;11.37;2.30;;;7.30;1.00;;;;;;5044291;28;20185;-73
2022/09/22 03:01:41;;;;;;;2.63;2.10;;;7.20;1.00;;;;;;5046179;28;20782;-73
2022/09/22 03:04:06;;;;;;;4.43;2.87;;;7.20;1.00;;;;;;5045676;28;20244;-73
2022/09/22 03:06:32;;;;;;;4.37;2.07;;;7.20;1.00;;;;;;5052025;28;20181;-72
2022/09/22 03:08:58;;;;;;;6.50;2.27;;;7.10;1.00;;;;;;5041544;28;20243;-72
2022/09/22 03:11:26;;;;;;;3.30;2.03;;;7.20;1.00;;;;;;5052497;28;20277;-73
2022/09/22 03:13:52;;;;;;;3.83;2.37;;;7.20;1.00;;;;;;5042697;28;20201;-71
2022/09/22 03:16:17;;;;;;;3.63;2.20;;;7.10;1.00;;;;;;5052167;28;20430;-73
2022/09/22 03:18:43;;;;;;;4.33;2.40;;;7.20;1.00;;;;;;5041407;28;20452;-73
2022/09/22 03:21:08;;;;;;;3.73;2.63;;;7.20;1.00;;;;;;5052198;28;20701;-73
2022/09/22 03:23:34;;;;;;;2.30;1.90;;;7.10;1.00;;;;;;5046110;28;20181;-73
2022/09/22 03:25:59;;;;;;;5.93;2.50;;;7.10;1.00;;;;;;5044041;28;20169;-73
2022/09/22 03:28:25;;;;;;;2.80;2.20;;;7.10;1.00;;;;;;5046518;28;20735;-73
2022/09/22 03:30:50;;;;;;;4.13;2.57;;;7.00;1.00;;;;;;5050451;28;20212;-73
2022/09/22 03:33:16;;;;;;;2.40;2.17;;;6.90;1.00;;;;;;5042852;28;20179;-73
2022/09/22 03:35:41;;;;;;;2.63;2.30;;;6.80;1.00;;;;;;5049352;28;20295;-73
2022/09/22 03:38:07;;;;;;;2.80;2.20;;;6.70;1.00;;;;;;5044717;28;20258;-73
2022/09/22 03:40:33;;;;;;;7.73;3.00;;;6.80;1.00;;;;;;5051991;28;20181;-73
2022/09/22 03:42:58;;;;;;;3.20;2.63;;;6.80;1.00;;;;;;5038735;28;20600;-72
2022/09/22 03:45:24;;;;;;;4.10;2.30;;;6.80;1.00;;;;;;5046804;28;20165;-73
2022/09/22 03:47:49;;;;;;;3.33;2.27;;;6.70;1.00;;;;;;5043652;28;20220;-73
2022/09/22 03:50:15;;;;;;;5.20;2.70;;;6.70;1.00;;;;;;5048121;28;20546;-72
2022/09/22 03:52:42;;;;;;;3.43;2.10;;;6.70;1.00;;;;;;5051512;28;20319;-73
2022/09/22 03:55:09;;;;;;;3.90;2.20;;;6.70;1.00;;;;;;5049095;28;20623;-72
2022/09/22 03:57:35;;;;;;;2.93;2.10;;;6.70;1.00;;;;;;5050646;28;20444;-73
2022/09/22 04:00:01;;;;;;;2.30;2.10;;;6.70;1.00;;;;;;5049219;28;20436;-73
2022/09/22 04:02:27;;;;;;;2.67;2.33;;;6.80;1.00;;;;;;5034236;28;20895;-72
2022/09/22 04:04:52;;;;;;;8.23;3.10;;;7.00;1.00;;;;;;5051249;28;20412;-73
2022/09/22 04:07:18;;;;;;;3.63;2.50;;;6.70;1.00;;;;;;5044978;28;20232;-71
2022/09/22 04:09:43;;;;;;;3.13;2.00;;;6.60;1.00;;;;;;5051668;28;20197;-72
2022/09/22 04:12:09;;;;;;;4.47;2.23;;;6.50;1.00;;;;;;5046951;28;20211;-71
2022/09/22 04:14:35;;;;;;;4.37;2.23;;;6.50;1.00;;;;;;5054529;28;20228;-73
2022/09/22 04:17:00;;;;;;;5.17;2.40;;;6.40;1.00;;;;;;5039182;28;20710;-73
2022/09/22 04:19:26;;;;;;;4.53;2.40;;;6.40;1.00;;;;;;5051319;28;20173;-72
2022/09/22 04:21:51;;;;;;;4.30;2.23;;;6.80;1.00;;;;;;5047396;28;20186;-72
2022/09/22 04:24:17;;;;;;;4.20;2.30;;;6.50;1.00;;;;;;5050848;28;20251;-72
2022/09/22 04:26:42;;;;;;;6.00;2.57;;;6.40;1.00;;;;;;5046975;28;20201;-72
2022/09/22 04:29:08;;;;;;;3.17;2.40;;;6.40;1.00;;;;;;5049735;28;20539;-73
2022/09/22 04:31:34;;;;;;;2.93;2.37;;;6.30;1.00;;;;;;5049420;28;20184;-73
2022/09/22 04:33:59;;;;;;;3.60;2.37;;;6.30;1.00;;;;;;5043161;28;20236;-72
2022/09/22 04:36:25;;;;;;;2.77;2.40;;;6.20;1.00;;;;;;5042190;28;20184;-72
2022/09/22 04:38:50;;;;;;;4.03;2.10;;;6.20;1.00;;;;;;5049705;28;20208;-73
2022/09/22 04:41:16;;;;;;;4.60;2.80;;;6.30;1.00;;;;;;5046844;28;20291;-72
2022/09/22 04:43:41;;;;;;;4.43;2.57;;;6.60;1.00;;;;;;5050077;28;20280;-72
2022/09/22 04:46:07;;;;;;;4.90;2.50;;;6.30;1.00;;;;;;5052651;28;20184;-71
2022/09/22 04:48:32;;;;;;;5.77;2.87;;;6.30;1.00;;;;;;5050185;28;20181;-72
2022/09/22 04:50:58;;;;;;;4.50;2.53;;;6.40;1.00;;;;;;5042539;28;20208;-73
2022/09/22 04:53:24;;;;;;;8.03;2.73;;;6.40;1.00;;;;;;5046827;28;20185;-73
2022/09/22 04:55:49;;;;;;;2.83;2.50;;;6.40;1.00;;;;;;5050800;28;20203;-72
2022/09/22 04:58:15;;;;;;;11.70;2.80;;;6.40;1.00;;;;;;5046458;28;20268;-73
2022/09/22 05:00:41;;;;;;;4.60;2.60;;;6.40;1.00;;;;;;5040782;28;20315;-72
2022/09/22 05:03:08;;;;;;;3.50;2.60;;;6.40;1.00;;;;;;5041424;28;20184;-73
2022/09/22 05:05:34;;;;;;;3.03;2.60;;;6.40;1.00;;;;;;5048265;28;20318;-73
2022/09/22 05:07:59;;;;;;;5.97;2.73;;;6.30;1.00;;;;;;5049794;28;20897;-73
2022/09/22 05:10:26;;;;;;;4.40;2.33;;;6.20;1.00;;;;;;5048755;28;20650;-72
2022/09/22 05:12:54;;;;;;;7.50;2.40;;;6.10;1.00;;;;;;5036366;28;20433;-76
2022/09/22 05:15:21;;;;;;;3.70;2.83;;;6.10;1.00;;;;;;5035647;28;20267;-76
2022/09/22 05:17:49;;;;;;;3.77;2.60;;;6.10;1.00;;;;;;5032075;28;20456;-75
2022/09/22 05:20:15;;;;;;;2.60;2.07;;;6.10;1.00;;;;;;5032863;28;20436;-75
2022/09/22 05:22:41;;;;;;;3.13;2.20;;;6.20;1.00;;;;;;5034899;28;20431;-73
2022/09/22 05:25:12;;;;;;;6.60;4.07;;;6.00;1.00;;;;;;5042867;28;20538;-71
2022/09/22 05:27:50;;;;;;;4.10;3.67;;;6.00;1.00;;;;;;5045459;28;20471;-73
2022/09/22 05:30:24;;;;;;;4.77;3.63;;;6.10;1.00;;;;;;5107210;27;20872;-73
2022/09/22 05:32:50;;;;;;;4.17;3.30;;;6.10;1.00;;;;;;5094603;28;20464;-73
2022/09/22 05:35:22;;;;;;;3.60;2.87;;;6.20;1.00;;;;;;5098268;28;20472;-74
2022/09/22 05:37:49;;;;;;;4.03;3.07;;;6.20;1.00;;;;;;5106714;28;20436;-74
2022/09/22 05:40:16;;;;;;;2.90;2.50;;;6.30;1.00;;;;;;5100843;28;20443;-73
2022/09/22 05:42:47;;;;;;;6.80;3.00;;;6.40;1.00;;;;;;5097811;28;20466;-74
2022/09/22 05:45:13;;;;;;;3.43;2.90;;;6.50;1.00;;;;;;5100645;28;20432;-74
2022/09/22 05:47:39;;;;;;;4.87;2.67;;;6.50;1.00;;;;;;5105278;27;20445;-74
2022/09/22 05:50:06;;;;;;;12.80;2.97;;;6.50;1.00;;;;;;5102544;28;20461;-72
2022/09/22 05:52:32;;;;;;;4.97;3.37;;;6.60;1.00;;;;;;5091392;28;20183;-73
2022/09/22 05:54:58;;;;;;;4.57;3.00;;;6.70;1.00;;;;;;5097884;28;20425;-75
2022/09/22 05:57:26;;;;;;;5.67;4.17;;;6.80;1.00;;;;;;5103325;28;20528;-73
2022/09/22 05:59:52;;;;;;;5.80;3.40;;;6.90;1.00;;;;;;5114920;28;20178;-73
2022/09/22 06:02:18;;;;;;;5.70;3.57;;;6.90;1.00;;;;;;5105555;28;20777;-74
2022/09/22 06:04:44;;;;;;;4.10;3.13;;;6.90;1.00;;;;;;5092581;28;20417;-73
2022/09/22 06:07:09;;;;;;;5.53;3.20;;;7.00;1.00;;;;;;5088989;28;21013;-73
2022/09/22 06:09:35;;;;;;;4.90;3.57;;;7.10;1.00;;;;;;5096551;28;20202;-72
2022/09/22 06:12:00;;;;;;;4.23;3.37;;;7.50;1.00;;;;;;5101663;28;20210;-74
2022/09/22 06:14:26;;;;;;;5.90;2.97;;;8.20;1.00;;;;;;5110222;28;20186;-72
2022/09/22 06:16:52;;;;;;;4.93;3.43;;;8.90;1.00;;;;;;5105581;28;20195;-73
2022/09/22 06:19:18;;;;;;;7.90;3.70;;;9.60;1.00;;;;;;5095176;28;20266;-74
2022/09/22 06:21:44;;;;;;;8.10;3.40;;;10.30;1.00;;;;;;5105374;28;20202;-75
2022/09/22 06:24:10;;;;;;;5.53;3.43;;;10.90;1.00;;;;;;5103925;28;20167;-74
2022/09/22 06:26:36;;;;;;;7.90;4.57;;;11.50;1.00;;;;;;5098995;28;20478;-75
2022/09/22 06:29:01;;;;;;;10.63;4.43;;;11.60;1.00;;;;;;5094627;28;20222;-74
2022/09/22 06:31:27;;;;;;;5.23;3.23;;;11.60;1.00;;;;;;5099118;28;20182;-74
2022/09/22 06:33:53;;;;;;;4.50;3.53;;;11.40;1.00;;;;;;5101292;28;20210;-74
2022/09/22 06:36:30;;;;;;;4.20;3.63;;;11.30;1.00;;;;;;5099805;28;20176;-73
2022/09/22 06:39:00;;;;;;;4.87;3.87;;;11.30;1.00;;;;;;5095643;28;20455;-74
2022/09/22 06:41:26;;;;;;;6.27;3.90;;;12.00;1.00;;;;;;5089110;28;20489;-73
2022/09/22 06:43:54;;;;;;;5.63;4.40;;;12.50;1.00;;;;;;5076249;28;20438;-75
2022/09/22 06:46:22;;;;;;;14.90;4.50;;;12.60;1.00;;;;;;5084634;28;20433;-76
2022/09/22 06:48:57;;;;;;;7.13;5.07;;;12.40;1.00;;;;;;5077453;28;20502;-74
2022/09/22 06:51:27;;;;;;;8.50;5.00;;;12.00;1.00;;;;;;5081523;28;20418;-75
2022/09/22 06:53:53;;;;;;;7.90;5.50;;;11.60;1.00;;;;;;5083311;28;20534;-74
2022/09/22 06:56:20;;;;;;;7.60;5.47;;;11.30;1.00;;;;;;5088962;28;21089;-74
2022/09/22 06:58:48;;;;;;;9.47;4.97;;;11.00;1.00;;;;;;5086176;28;20279;-74
2022/09/22 07:01:14;;;;;;;13.50;5.70;;;10.90;1.00;;;;;;5079007;28;20900;-75
2022/09/22 07:03:40;;;;;;;5.73;4.87;;;10.80;1.00;;;;;;5089185;28;20939;-74
2022/09/22 07:06:07;;;;;;;12.50;5.50;;;10.70;1.00;;;;;;5089499;28;20439;-74
2022/09/22 07:08:33;;;;;;;10.63;4.63;;;10.80;1.00;;;;;;5076671;28;20465;-74
2022/09/22 07:11:08;;;;;;;13.93;5.17;;;10.80;1.00;;;;;;5080797;28;20517;-73
2022/09/22 07:13:37;;;;;;;6.73;5.30;;;10.90;1.00;;;;;;5083749;28;20432;-74
2022/09/22 07:16:07;;;;;;;7.43;4.90;;;10.90;1.00;;;;;;5096443;28;20423;-73
2022/09/22 07:18:34;;;;;;;6.93;5.33;;;11.00;1.00;;;;;;5086204;28;20422;-74
2022/09/22 07:21:12;;;;;;;7.00;5.40;;;11.10;1.00;;;;;;5071409;28;20434;-74
2022/09/22 07:23:39;;;;;;;10.83;5.50;;;11.20;1.00;;;;;;5085599;28;20756;-74
2022/09/22 07:26:11;;;;;;;12.53;5.90;;;11.30;1.00;;;;;;5089696;28;20588;-74
2022/09/22 07:28:37;;;;;;;6.50;5.53;;;11.30;1.00;;;;;;5090056;28;20478;-74
2022/09/22 07:31:05;;;;;;;12.30;5.40;;;11.50;1.00;;;;;;5093840;28;20419;-74
2022/09/22 07:33:32;;;;;;;7.10;5.00;;;11.70;1.00;;;;;;5085824;28;20501;-73
2022/09/22 07:36:03;;;;;;;8.63;5.77;;;11.80;1.00;;;;;;5083312;28;20491;-75
2022/09/22 07:38:32;;;;;;;9.60;5.13;;;12.10;1.00;;;;;;5086783;28;20814;-73
2022/09/22 07:40:59;;;;;;;5.77;4.70;;;12.40;1.00;;;;;;5088430;28;21161;-74
2022/09/22 07:43:28;;;;;;;6.70;4.73;;;12.70;1.00;;;;;;5081555;28;20940;-73
2022/09/22 07:45:56;;;;;;;5.63;4.93;;;13.10;1.00;;;;;;5083588;28;20871;-73
2022/09/22 07:51:21;;;;;;;7.63;4.67;;;13.80;1.00;;;;;;5081332;28;20610;-74
2022/09/22 07:54:01;;;;;;;8.30;4.80;;;14.40;1.00;;;;;;5088508;28;20501;-74
2022/09/22 07:56:27;;;;;;;9.13;5.00;;;15.10;1.00;;;;;;5082120;28;20476;-74
2022/09/22 07:58:54;;;;;;;8.83;6.10;;;15.60;1.00;;;;;;5089812;28;20513;-74
2022/09/22 08:01:21;;;;;;;10.00;5.40;;;16.30;1.00;;;;;;5083186;28;20421;-74
2022/09/22 08:03:47;;;;;;;5.43;4.13;;;17.00;1.00;;;;;;5083306;28;20531;-75
2022/09/22 08:06:15;;;;;;;7.50;5.20;;;17.80;1.00;;;;;;5081297;28;20755;-74
2022/09/22 08:08:43;;;;;;;6.23;4.60;;;18.60;1.00;;;;;;5086921;28;20207;-74
2022/09/22 08:11:17;;;;;;;6.77;4.90;;;19.00;1.00;;;;;;5087563;28;20428;-75
2022/09/22 08:13:54;;;;;;;7.20;4.40;;;19.60;1.00;;;;;;5084726;28;20438;-74
2022/09/22 08:16:21;;;;;;;7.23;4.57;;;20.00;1.00;;;;;;5088673;28;20425;-75
2022/09/22 08:18:55;;;;;;;6.60;4.80;;;20.90;1.00;;;;;;5086528;28;20964;-75
2022/09/22 08:21:25;;;;;;;7.37;4.30;;;21.90;1.00;;;;;;5088113;28;20810;-74
2022/09/22 08:23:51;;;;;;;8.40;4.30;;;23.20;1.00;;;;;;5084470;28;20975;-76
2022/09/22 08:26:19;;;;;;;5.57;3.77;;;24.20;1.00;;;;;;5086665;28;20519;-75
2022/09/22 08:28:46;;;;;;;8.63;3.63;;;25.50;1.00;;;;;;5085128;28;20716;-75
2022/09/22 08:31:14;;;;;;;7.80;4.00;;;26.50;1.00;;;;;;5078901;28;20192;-75
2022/09/22 08:33:39;;;;;;;5.30;2.83;;;26.60;1.00;;;;;;5084760;28;20215;-75
2022/09/22 08:36:06;;;;;;;3.70;2.30;;;26.10;1.00;;;;;;5089597;28;20256;-75
2022/09/22 08:38:34;;;;;;;5.50;2.37;;;26.20;1.00;;;;;;5101123;28;20282;-77
2022/09/22 08:41:14;;;;;;;4.57;2.90;;;26.70;1.00;;;;;;5079164;28;20186;-75
2022/09/22 08:43:49;;;;;;;4.87;3.00;;;26.90;1.00;;;;;;5081065;28;20171;-75
2022/09/22 08:46:14;;;;;;;3.70;2.40;;;27.20;1.00;;;;;;5078218;28;20664;-76
2022/09/22 08:51:51;;;;;;;4.22;2.70;;;28.40;1.00;;;;;;5085124;28;20201;-75
2022/09/22 08:54:31;;;;;;;4.95;2.70;;;28.60;1.00;;;;;;5082436;28;20184;-75
2022/09/22 08:57:22;;;;;;;4.70;2.70;;;28.60;1.00;;;;;;5079178;28;20191;-76
2022/09/22 09:00:01;;;;;;;7.28;3.40;;;28.90;1.00;;;;;;5084000;28;20176;-75
2022/09/22 09:02:55;;;;;;;4.05;2.72;;;28.90;1.00;;;;;;5079446;28;20228;-75
2022/09/22 09:05:45;;;;;;;3.42;2.78;;;28.50;1.00;;;;;;5076023;28;20183;-76
2022/09/22 09:08:52;;;;;;;4.30;2.70;;;28.70;1.00;;;;;;5079964;28;20192;-75
2022/09/22 09:11:30;;;;;;;3.85;2.90;;;29.30;1.00;;;;;;5095498;28;20180;-74
2022/09/22 09:14:07;;;;;;;6.45;2.70;;;30.60;1.00;;;;;;5098813;28;20174;-76
2022/09/22 09:16:48;;;;;;;4.65;2.90;;;30.60;1.00;;;;;;5088508;28;20538;-77
2022/09/22 09:19:28;;;;;;;4.03;2.60;;;31.10;1.00;;;;;;5084700;28;20642;-74
2022/09/22 09:22:00;;;;;;;4.72;2.50;;;30.80;1.00;;;;;;5079204;28;20172;-75
2022/09/22 09:24:34;;;;;;;4.85;2.80;;;31.40;1.00;;;;;;5091718;28;20198;-75
2022/09/22 09:27:07;;;;;;;6.00;2.53;;;32.20;1.00;;;;;;5083436;28;20707;-75
2022/09/22 09:29:40;;;;;;;5.30;2.45;;;32.10;1.00;;;;;;5089013;28;20199;-75
2022/09/22 09:32:17;;;;;;;2.88;2.08;;;32.70;1.00;;;;;;5076687;28;20479;-75
2022/09/22 09:34:43;;;;;;;4.78;2.72;;;33.30;1.00;;;;;;5082441;28;20542;-75
2022/09/22 09:37:14;;;;;;;4.65;2.40;;;33.40;1.00;;;;;;5083245;28;20199;-76
2022/09/22 09:39:41;;;;;;;4.03;2.60;;;33.00;1.00;;;;;;5079717;28;20566;-76
2022/09/22 09:42:27;;;;;;;3.63;2.30;;;32.60;1.00;;;;;;5077285;28;20872;-75
2022/09/22 09:44:54;;;;;;;4.28;2.20;;;33.20;1.00;;;;;;5082073;28;20240;-75
2022/09/22 09:47:52;;;;;;;5.93;2.28;;;34.20;1.00;;;;;;5081464;28;20207;-75
2022/09/22 09:50:18;;;;;;;3.80;2.60;;;34.60;1.00;;;;;;5084048;28;20202;-76
2022/09/22 09:52:44;;;;;;;3.70;2.60;;;34.20;1.00;;;;;;5081077;28;20171;-75
2022/09/22 09:55:24;;;;;;;5.50;3.15;;;33.00;1.00;;;;;;5084067;28;20363;-76
2022/09/22 09:58:09;;;;;;;4.72;2.30;;;32.50;1.00;;;;;;5091557;28;20278;-76
2022/09/22 10:00:55;;;;;;;5.35;2.63;;;32.80;1.00;;;;;;5093310;28;20191;-76
2022/09/22 10:03:23;;;;;;;3.97;2.65;;;33.50;1.00;;;;;;5090604;28;20232;-75
2022/09/22 10:05:58;;;;;;;6.15;2.55;;;33.10;1.00;;;;;;5084070;28;20182;-74
2022/09/22 10:08:25;;;;;;;3.90;2.65;;;32.60;1.00;;;;;;5083953;28;20237;-76
2022/09/22 10:10:58;;;;;;;4.65;2.28;;;32.60;1.00;;;;;;5085086;28;20179;-76
2022/09/22 10:13:37;;;;;;;5.07;2.20;;;33.60;1.00;;;;;;5084285;28;20262;-77
2022/09/22 10:16:06;;;;;;;3.55;2.30;;;34.20;1.00;;;;;;5086463;28;20718;-76
2022/09/22 10:18:35;;;;;;;3.72;2.42;;;34.10;1.00;;;;;;5082733;28;20215;-77
2022/09/22 10:21:15;;;;;;;4.68;2.83;;;34.50;1.00;;;;;;5082228;28;20178;-77
2022/09/22 10:23:43;;;;;;;3.80;2.00;;;35.30;1.00;;;;;;5092693;28;20556;-76
2022/09/22 10:26:21;;;;;;;5.60;2.22;;;35.20;1.00;;;;;;5083326;28;20264;-77
2022/09/22 10:29:16;;;;;;;3.50;2.20;;;35.80;1.00;;;;;;5080211;28;20780;-75
2022/09/22 10:32:02;;;;;;;3.15;2.00;;;36.10;1.00;;;;;;5084906;28;20664;-76
2022/09/22 10:34:30;;;;;;;4.43;2.38;;;36.20;1.00;;;;;;5087893;28;20167;-74
2022/09/22 10:37:00;;;;;;;3.10;2.10;;;36.80;1.00;;;;;;5092467;28;20225;-76
2022/09/22 10:39:41;;;;;;;3.40;2.20;;;37.30;1.00;;;;;;5081517;28;20183;-75
2022/09/22 10:42:30;;;;;;;3.03;1.80;;;37.50;1.00;;;;;;5078022;28;20587;-76
2022/09/22 10:45:04;;;;;;;4.07;1.98;;;37.80;1.00;;;;;;5091980;28;20183;-76
2022/09/22 10:47:46;;;;;;;3.97;2.10;;;38.00;1.00;;;;;;5084912;28;20194;-76
2022/09/22 10:50:40;;;;;;;6.43;2.03;;;37.30;1.00;;;;;;5086381;28;20207;-76
2022/09/22 10:53:19;;;;;;;5.00;2.00;;;36.50;1.00;;;;;;5085040;28;20190;-76
2022/09/22 10:55:45;;;;;;;3.28;2.10;;;36.00;1.00;;;;;;5084473;28;20176;-77
2022/09/22 10:58:42;;;;;;;4.82;1.70;;;36.20;1.00;;;;;;5091562;28;20187;-75
2022/09/22 11:01:41;;;;;;;3.70;1.98;;;36.50;1.00;;;;;;5077278;28;20777;-76
2022/09/22 11:04:19;;;;;;;4.82;2.10;;;37.00;1.00;;;;;;5080614;28;20266;-76
2022/09/22 11:12:50;;;;;;;6.47;2.13;;;36.20;1.00;;;;;;5089612;28;20548;-77
2022/09/22 11:15:25;;;;;;;2.70;1.90;;;37.00;1.00;;;;;;5097585;28;20182;-76
2022/09/22 11:18:06;;;;;;;2.75;1.70;;;37.40;1.00;;;;;;5076729;28;20197;-77
2022/09/22 11:20:57;;;;;;;2.80;1.70;;;36.90;1.00;;;;;;5075830;28;20176;-76
2022/09/22 11:23:45;;;;;;;2.63;1.90;;;37.60;1.00;;;;;;5086315;28;20167;-78
2022/09/22 11:26:28;;;;;;;3.25;1.83;;;37.70;1.00;;;;;;5082324;28;20167;-76
2022/09/22 11:28:54;;;;;;;2.80;1.83;;;37.40;1.00;;;;;;5089530;28;20245;-77
2022/09/22 11:31:38;;;;;;;3.03;1.80;;;37.50;1.00;;;;;;5082422;28;20175;-76
2022/09/22 11:34:18;;;;;;;4.55;1.90;;;36.70;1.00;;;;;;5084279;28;20206;-75
2022/09/22 11:36:47;;;;;;;2.80;1.90;;;36.40;1.00;;;;;;5089093;28;20697;-75
2022/09/22 11:39:33;;;;;;;3.85;1.92;;;36.50;1.00;;;;;;5087168;28;20223;-76
2022/09/22 11:42:16;;;;;;;5.50;2.00;;;36.80;1.00;;;;;;5090758;28;20179;-76
2022/09/22 11:45:19;;;;;;;2.63;1.52;;;38.00;1.00;;;;;;5080785;28;20252;-76
2022/09/22 11:48:16;;;;;;;3.58;1.77;;;38.70;1.00;;;;;;5096254;28;20198;-76
2022/09/22 11:51:09;;;;;;;2.80;1.60;;;38.20;1.00;;;;;;5075837;28;20172;-76
2022/09/22 11:54:03;;;;;;;2.75;1.40;;;38.00;1.00;;;;;;5080145;28;20197;-75
2022/09/22 11:56:40;;;;;;;3.75;1.70;;;37.10;1.00;;;;;;5091636;28;20175;-76
2022/09/22 11:59:30;;;;;;;3.25;1.85;;;36.40;1.00;;;;;;5086941;28;20228;-76
2022/09/22 12:01:58;;;;;;;3.97;1.88;;;36.40;1.00;;;;;;5083891;28;20175;-76
2022/09/22 12:04:33;;;;;;;3.83;1.85;;;36.60;1.00;;;;;;5087338;28;20176;-76
2022/09/22 12:07:02;;;;;;;3.33;1.90;;;36.50;1.00;;;;;;5087127;28;20195;-76
2022/09/22 12:09:45;;;;;;;2.75;1.90;;;35.20;1.00;;;;;;5089164;28;20195;-76
2022/09/22 12:12:17;;;;;;;3.95;1.83;;;35.40;1.00;;;;;;5074777;28;20174;-76
2022/09/22 12:14:43;;;;;;;5.93;2.50;;;36.40;1.00;;;;;;5088127;28;20266;-75
2022/09/22 12:17:15;;;;;;;4.88;2.08;;;35.90;1.00;;;;;;5082760;28;20749;-76
2022/09/22 12:20:07;;;;;;;2.95;1.80;;;35.60;1.00;;;;;;5083695;28;20194;-76
2022/09/22 12:23:04;;;;;;;2.80;1.88;;;34.50;1.00;;;;;;5080509;28;20657;-76
2022/09/22 12:25:55;;;;;;;3.75;2.00;;;34.60;1.00;;;;;;5081969;28;20626;-77
2022/09/22 12:28:24;;;;;;;2.72;1.75;;;34.90;1.00;;;;;;5088825;28;20211;-75
2022/09/22 12:31:04;;;;;;;3.03;1.70;;;35.10;1.00;;;;;;5082978;28;20349;-75
2022/09/22 12:33:33;;;;;;;3.20;1.80;;;35.90;1.00;;;;;;5085535;28;20250;-75
2022/09/22 12:35:59;;;;;;;2.83;1.80;;;35.10;1.00;;;;;;5084697;28;20247;-75
2022/09/22 12:38:25;;;;;;;2.30;1.60;;;35.10;1.00;;;;;;5089311;28;20607;-76
2022/09/22 12:40:53;;;;;;;2.72;1.88;;;35.80;1.00;;;;;;5093574;28;20165;-75
2022/09/22 12:43:23;;;;;;;3.60;1.88;;;35.50;1.00;;;;;;5084578;28;20218;-75
2022/09/22 12:45:50;;;;;;;2.70;1.67;;;35.40;1.00;;;;;;5079205;28;20285;-76
2022/09/22 12:48:27;;;;;;;3.60;1.92;;;35.40;1.00;;;;;;5093381;28;20324;-76
2022/09/22 12:51:14;;;;;;;3.10;1.60;;;35.20;1.00;;;;;;5084210;28;20507;-75
2022/09/22 12:53:40;;;;;;;2.80;1.70;;;37.20;1.00;;;;;;5103218;28;20189;-76
2022/09/22 12:56:43;;;;;;;3.35;1.88;;;38.50;1.00;;;;;;5087258;28;20637;-76
2022/09/22 12:59:50;;;;;;;4.38;2.10;;;39.40;1.00;;;;;;5075521;28;20209;-76
2022/09/22 13:02:28;;;;;;;5.82;1.88;;;39.00;1.00;;;;;;5081585;28;20179;-74
2022/09/22 13:04:56;;;;;;;2.70;1.55;;;38.40;1.00;;;;;;5079950;28;20661;-75
2022/09/22 13:07:39;;;;;;;3.50;1.73;;;37.60;1.00;;;;;;5095599;28;20198;-75
2022/09/22 13:10:22;;;;;;;7.03;1.75;;;37.40;1.00;;;;;;5090294;28;20227;-75
2022/09/22 13:13:04;;;;;;;4.68;2.10;;;37.90;1.00;;;;;;5084552;28;20175;-76
2022/09/22 13:15:44;;;;;;;3.55;1.70;;;39.30;1.00;;;;;;5084628;28;20274;-76
2022/09/22 13:18:36;;;;;;;2.67;1.55;;;40.30;1.00;;;;;;5099672;28;20594;-75
2022/09/22 13:21:11;;;;;;;2.97;1.67;;;40.40;1.00;;;;;;5078862;28;20175;-75
2022/09/22 13:23:37;;;;;;;3.40;1.70;;;40.20;1.00;;;;;;5076561;28;20605;-75
2022/09/22 13:26:11;;;;;;;3.88;1.88;;;39.60;1.00;;;;;;5090006;28;20198;-75
2022/09/22 13:28:36;;;;;;;6.60;1.70;;;39.40;1.00;;;;;;5090812;28;20272;-76
2022/09/22 13:31:10;;;;;;;6.90;2.10;;;38.90;1.00;;;;;;5080444;28;20634;-76
2022/09/22 13:33:36;;;;;;;4.25;1.80;;;37.80;1.00;;;;;;5081276;28;20187;-75
2022/09/22 13:36:04;;;;;;;2.78;1.60;;;37.20;1.00;;;;;;5085844;28;20502;-75
2022/09/22 13:38:36;;;;;;;3.75;1.60;;;37.30;1.00;;;;;;5086122;28;20203;-76
2022/09/22 13:41:08;;;;;;;3.70;1.80;;;38.00;1.00;;;;;;5081345;28;20174;-76